createdAt,value
2018-09-21T00:01:47.763Z,13.30
2018-09-21T00:04:16.706Z,13.43
2018-09-21T00:06:45.626Z,12.73
2018-09-21T00:09:14.648Z,13.05
2018-09-21T00:11:43.552Z,13.27
2018-09-21T00:14:12.462Z,12.43
2018-09-21T00:16:41.430Z,12.20
2018-09-21T00:19:10.371Z,13.33
2018-09-21T00:21:39.275Z,12.90
2018-09-21T00:24:08.223Z,11.77
2018-09-21T00:26:37.141Z,11.23
2018-09-21T00:29:06.055Z,10.70
2018-09-21T00:31:35.024Z,12.10
2018-09-21T00:34:03.958Z,11.50
2018-09-21T00:36:32.866Z,11.13
2018-09-21T00:39:01.900Z,11.47
2018-09-21T00:41:30.842Z,11.70
2018-09-21T00:43:59.775Z,11.37
2018-09-21T00:46:28.735Z,11.07
2018-09-21T00:48:57.632Z,10.67
2018-09-21T00:51:26.543Z,10.67
2018-09-21T00:53:56.816Z,9.93
2018-09-21T00:56:25.605Z,10.30
2018-09-21T00:58:54.763Z,10.27
2018-09-21T01:01:23.769Z,10.20
2018-09-21T01:03:52.606Z,10.33
2018-09-21T01:06:21.444Z,10.77
2018-09-21T01:08:50.330Z,11.13
2018-09-21T01:11:19.182Z,10.83
2018-09-21T01:13:48.030Z,10.70
2018-09-21T01:16:16.899Z,9.93
2018-09-21T01:18:45.717Z,9.97
2018-09-21T01:21:14.562Z,10.80
2018-09-21T01:23:43.463Z,10.53
2018-09-21T01:26:12.359Z,11.33
2018-09-21T01:28:41.239Z,11.23
2018-09-21T01:31:10.122Z,11.03
2018-09-21T01:33:38.947Z,11.37
2018-09-21T01:36:07.829Z,11.70
2018-09-21T01:38:36.703Z,12.83
2018-09-21T01:41:05.553Z,12.90
2018-09-21T01:43:34.382Z,13.20
2018-09-21T01:46:04.826Z,13.23
2018-09-21T01:48:33.653Z,12.80
2018-09-21T01:51:02.803Z,15.47
2018-09-21T01:53:32.494Z,16.23
2018-09-21T01:56:01.310Z,14.67
2018-09-21T01:58:30.146Z,16.13
2018-09-21T02:01:00.217Z,18.87
2018-09-21T02:03:29.017Z,16.43
2018-09-21T02:05:57.857Z,18.53
2018-09-21T02:08:26.646Z,19.37
2018-09-21T02:10:55.547Z,23.00
2018-09-21T02:13:24.458Z,20.27
2018-09-21T02:15:53.414Z,20.73
2018-09-21T02:18:22.245Z,26.40
2018-09-21T02:20:51.108Z,27.37
2018-09-21T02:23:19.946Z,25.13
2018-09-21T02:25:48.794Z,26.87
2018-09-21T02:28:17.630Z,53.93
2018-09-21T02:30:46.479Z,35.40
2018-09-21T02:33:15.362Z,27.93
2018-09-21T02:35:44.187Z,35.67
2018-09-21T02:38:12.993Z,34.40
2018-09-21T02:40:43.112Z,36.47
2018-09-21T02:43:11.929Z,31.77
2018-09-21T02:45:40.753Z,29.50
2018-09-21T02:48:09.590Z,23.37
2018-09-21T02:50:38.388Z,23.07
2018-09-21T02:53:07.227Z,18.70
2018-09-21T02:55:36.116Z,19.40
2018-09-21T02:58:05.026Z,19.50
2018-09-21T03:00:33.959Z,18.80
2018-09-21T03:03:04.153Z,16.83
2018-09-21T03:05:33.109Z,16.97
2018-09-21T03:08:01.968Z,16.23
2018-09-21T03:10:32.065Z,13.30
2018-09-21T03:13:01.173Z,12.37
2018-09-21T03:15:30.027Z,21.33
2018-09-21T03:17:58.854Z,20.17
2018-09-21T03:20:29.092Z,24.80
2018-09-21T03:22:57.986Z,15.20
2018-09-21T03:25:26.858Z,14.33
2018-09-21T03:27:55.741Z,14.57
2018-09-21T03:30:24.664Z,12.00
2018-09-21T03:32:53.479Z,10.53
2018-09-21T03:35:22.323Z,10.50
2018-09-21T03:37:52.530Z,10.70
2018-09-21T03:40:21.472Z,11.13
2018-09-21T03:42:50.505Z,12.23
2018-09-21T03:45:20.661Z,11.70
2018-09-21T03:47:49.494Z,12.87
2018-09-21T03:50:19.677Z,14.23
2018-09-21T03:52:48.514Z,17.42
2018-09-21T03:55:17.363Z,16.20
2018-09-21T03:57:46.317Z,15.37
2018-09-21T04:00:15.138Z,17.27
2018-09-21T04:02:43.989Z,14.17
2018-09-21T04:05:14.213Z,13.83
2018-09-21T04:07:43.069Z,13.00
2018-09-21T04:10:11.887Z,16.53
2018-09-21T04:12:42.095Z,17.97
2018-09-21T04:15:10.976Z,19.13
2018-09-21T04:17:39.761Z,18.87
2018-09-21T04:20:09.986Z,21.20
2018-09-21T04:22:38.945Z,23.70
2018-09-21T04:25:09.128Z,24.53
2018-09-21T04:27:42.066Z,24.40
2018-09-21T04:32:34.075Z,24.40
2018-09-21T04:35:02.936Z,21.93
2018-09-21T04:37:31.754Z,22.13
2018-09-21T04:40:00.606Z,23.73
2018-09-21T04:42:29.495Z,21.30
2018-09-21T04:44:58.367Z,22.57
2018-09-21T04:47:28.321Z,22.53
2018-09-21T04:49:57.253Z,22.90
2018-09-21T04:52:26.099Z,25.03
2018-09-21T04:54:54.976Z,24.60
2018-09-21T04:57:23.840Z,23.33
2018-09-21T04:59:52.690Z,23.30
2018-09-21T05:02:21.509Z,22.23
2018-09-21T05:04:50.395Z,23.23
2018-09-21T05:07:19.180Z,21.77
2018-09-21T05:09:48.007Z,19.37
2018-09-21T05:12:17.022Z,20.57
2018-09-21T05:14:46.586Z,22.47
2018-09-21T05:17:15.477Z,22.53
2018-09-21T05:19:44.401Z,22.77
2018-09-21T05:22:13.406Z,24.53
2018-09-21T05:24:48.437Z,25.93
2018-09-21T05:27:17.322Z,25.07
2018-09-21T05:29:46.168Z,30.00
2018-09-21T05:32:15.075Z,31.80
2018-09-21T05:34:44.095Z,27.20
2018-09-21T05:37:12.774Z,24.50
2018-09-21T05:39:41.582Z,21.00
2018-09-21T05:42:10.442Z,20.00
2018-09-21T05:44:39.281Z,24.43
2018-09-21T05:47:08.350Z,21.47
2018-09-21T05:49:37.165Z,19.97
2018-09-21T05:52:06.413Z,20.73
2018-09-21T05:54:35.297Z,33.57
2018-09-21T05:57:04.109Z,35.60
2018-09-21T05:59:33.005Z,30.87
2018-09-21T06:02:01.889Z,31.67
2018-09-21T06:04:30.706Z,31.67
2018-09-21T06:06:59.715Z,32.90
2018-09-21T06:09:28.511Z,31.97
2018-09-21T06:11:57.319Z,28.33
2018-09-21T06:14:26.196Z,25.37
2018-09-21T06:16:55.277Z,23.77
2018-09-21T06:19:24.124Z,25.23
2018-09-21T06:21:52.897Z,25.10
2018-09-21T06:24:21.796Z,25.80
2018-09-21T06:26:50.635Z,26.03
2018-09-21T06:29:19.581Z,22.33
2018-09-21T06:31:48.529Z,22.07
2018-09-21T06:34:18.597Z,20.77
2018-09-21T06:36:47.587Z,18.83
2018-09-21T06:39:16.422Z,18.10
2018-09-21T06:41:45.337Z,18.83
2018-09-21T06:44:14.150Z,20.53
2018-09-21T06:46:42.966Z,20.77
2018-09-21T06:49:13.129Z,20.27
2018-09-21T06:51:41.965Z,21.03
2018-09-21T06:54:10.824Z,26.77
2018-09-21T06:56:39.671Z,24.57
2018-09-21T06:59:08.584Z,26.03
2018-09-21T07:01:37.594Z,23.63
2018-09-21T07:04:06.403Z,24.17
2018-09-21T07:06:35.245Z,25.60
2018-09-21T07:09:05.006Z,24.93
2018-09-21T07:11:33.828Z,20.97
2018-09-21T07:14:02.661Z,21.73
2018-09-21T07:16:32.973Z,26.47
2018-09-21T07:19:01.833Z,28.37
2018-09-21T07:21:30.788Z,26.73
2018-09-21T07:23:59.626Z,22.40
2018-09-21T07:26:28.544Z,24.07
2018-09-21T07:28:58.785Z,20.60
2018-09-21T07:31:27.765Z,17.83
2018-09-21T07:33:56.654Z,19.10
2018-09-21T07:36:26.015Z,25.20
2018-09-21T07:38:54.834Z,18.47
2018-09-21T07:41:24.981Z,15.57
2018-09-21T07:43:54.134Z,16.20
2018-09-21T07:46:23.025Z,20.67
2018-09-21T07:48:51.826Z,22.93
2018-09-21T07:51:26.794Z,27.70
2018-09-21T07:53:55.625Z,25.80
2018-09-21T07:56:24.441Z,14.50
2018-09-21T07:58:53.385Z,16.33
2018-09-21T08:01:22.348Z,14.07
2018-09-21T08:03:51.157Z,17.77
2018-09-21T08:06:20.065Z,10.10
2018-09-21T08:08:48.876Z,21.87
2018-09-21T08:11:17.992Z,9.17
2018-09-21T08:13:46.854Z,8.43
2018-09-21T08:16:15.690Z,10.43
2018-09-21T08:18:44.530Z,8.20
2018-09-21T08:21:14.942Z,10.77
2018-09-21T08:23:43.741Z,14.10
2018-09-21T08:26:12.535Z,7.67
2018-09-21T08:28:42.629Z,8.87
2018-09-21T08:31:11.543Z,7.50
2018-09-21T08:33:40.345Z,7.53
2018-09-21T08:36:09.230Z,6.97
2018-09-21T08:38:38.042Z,8.07
2018-09-21T08:41:07.330Z,7.70
2018-09-21T08:43:37.413Z,6.67
2018-09-21T08:46:06.225Z,9.60
2018-09-21T08:48:35.023Z,7.57
2018-09-21T08:51:05.394Z,8.23
2018-09-21T08:53:34.363Z,6.57
2018-09-21T08:56:03.192Z,7.20
2018-09-21T08:58:33.266Z,7.00
2018-09-21T09:01:02.073Z,7.80
2018-09-21T09:03:30.940Z,6.30
2018-09-21T09:05:59.804Z,6.20
2018-09-21T09:08:28.623Z,7.37
2018-09-21T09:10:57.460Z,6.83
2018-09-21T09:13:26.397Z,7.00
2018-09-21T09:15:55.355Z,6.97
2018-09-21T09:18:24.240Z,6.37
2018-09-21T09:20:53.098Z,6.50
2018-09-21T09:23:21.887Z,7.33
2018-09-21T09:25:50.725Z,6.57
2018-09-21T09:28:19.578Z,6.70
2018-09-21T09:30:48.491Z,6.70
2018-09-21T09:33:17.304Z,6.73
2018-09-21T09:35:46.249Z,6.70
2018-09-21T09:38:15.111Z,7.07
2018-09-21T09:40:44.078Z,7.10
2018-09-21T09:43:14.644Z,6.47
2018-09-21T09:45:43.709Z,6.37
2018-09-21T09:48:12.641Z,6.43
2018-09-21T09:50:42.986Z,6.80
2018-09-21T09:53:11.851Z,6.33
2018-09-21T09:55:40.801Z,6.23
2018-09-21T09:58:09.839Z,5.97
2018-09-21T10:00:43.706Z,5.67
2018-09-21T10:03:12.713Z,6.27
2018-09-21T10:05:42.991Z,5.50
2018-09-21T10:08:12.969Z,5.87
2018-09-21T10:10:42.213Z,5.13
2018-09-21T10:13:11.607Z,5.67
2018-09-21T10:15:40.668Z,6.03
2018-09-21T10:18:09.839Z,5.13
2018-09-21T10:20:38.909Z,4.93
2018-09-21T10:23:07.959Z,4.50
2018-09-21T10:25:38.256Z,5.23
2018-09-21T10:28:07.480Z,4.67
2018-09-21T10:30:36.385Z,5.40
2018-09-21T10:33:06.623Z,4.60
2018-09-21T10:35:35.585Z,5.47
2018-09-21T10:38:04.493Z,4.90
2018-09-21T10:40:34.695Z,4.90
2018-09-21T10:43:05.070Z,5.07
2018-09-21T10:45:36.190Z,5.57
2018-09-21T10:48:05.382Z,5.22
2018-09-21T10:50:35.767Z,5.20
2018-09-21T10:53:04.752Z,5.70
2018-09-21T10:55:33.786Z,5.97
2018-09-21T10:58:04.134Z,5.07
2018-09-21T11:00:33.102Z,5.13
2018-09-21T11:03:02.126Z,4.90
2018-09-21T11:05:31.119Z,4.20
2018-09-21T11:08:00.181Z,4.97
2018-09-21T11:10:30.356Z,5.03
2018-09-21T11:13:00.747Z,5.30
2018-09-21T11:15:29.699Z,5.33
2018-09-21T11:17:58.624Z,5.70
2018-09-21T11:20:27.593Z,4.90
2018-09-21T11:22:56.516Z,5.10
2018-09-21T11:25:25.465Z,4.70
2018-09-21T11:27:54.633Z,4.80
2018-09-21T11:30:23.566Z,4.97
2018-09-21T11:32:52.516Z,5.20
2018-09-21T11:35:21.569Z,4.77
2018-09-21T11:37:50.528Z,5.07
2018-09-21T11:40:19.556Z,5.23
2018-09-21T11:42:48.565Z,5.03
2018-09-21T11:45:17.643Z,5.03
2018-09-21T11:47:46.632Z,5.57
2018-09-21T11:50:16.807Z,5.23
2018-09-21T11:52:45.723Z,5.83
2018-09-21T11:55:16.028Z,6.17
2018-09-21T11:57:45.007Z,5.30
2018-09-21T12:00:14.012Z,5.13
2018-09-21T12:02:44.343Z,5.37
2018-09-21T12:05:13.352Z,5.10
2018-09-21T12:07:42.318Z,5.63
2018-09-21T12:10:11.360Z,4.70
2018-09-21T12:12:40.431Z,6.23
2018-09-21T12:15:09.512Z,5.23
2018-09-21T12:17:38.503Z,5.37
2018-09-21T12:20:07.567Z,5.80
2018-09-21T12:22:36.627Z,5.13
2018-09-21T12:25:06.021Z,5.67
2018-09-21T12:27:35.028Z,5.37
2018-09-21T12:30:04.013Z,5.63
2018-09-21T12:32:32.921Z,6.10
2018-09-21T12:35:01.909Z,6.47
2018-09-21T12:37:30.866Z,5.90
2018-09-21T12:39:59.799Z,6.07
2018-09-21T12:42:28.863Z,6.30
2018-09-21T12:44:57.866Z,6.03
2018-09-21T12:47:26.802Z,5.57
2018-09-21T12:49:55.810Z,5.57
2018-09-21T12:52:24.829Z,5.97
2018-09-21T12:54:53.744Z,5.33
2018-09-21T12:57:24.070Z,5.90
2018-09-21T12:59:53.052Z,7.13
2018-09-21T13:02:22.025Z,6.10
2018-09-21T13:04:51.134Z,6.67
2018-09-21T13:07:20.087Z,6.63
2018-09-21T13:09:50.437Z,5.77
2018-09-21T13:12:19.409Z,6.13
2018-09-21T13:14:48.384Z,5.97
2018-09-21T13:17:17.336Z,6.00
2018-09-21T13:19:46.444Z,6.00
2018-09-21T13:22:15.374Z,6.40
2018-09-21T13:24:44.591Z,6.63
2018-09-21T13:27:13.590Z,6.60
2018-09-21T13:29:42.685Z,6.63
2018-09-21T13:32:11.693Z,6.23
2018-09-21T13:34:40.657Z,6.53
2018-09-21T13:37:09.671Z,5.67
2018-09-21T13:39:38.670Z,6.87
2018-09-21T13:42:07.699Z,5.67
2018-09-21T13:44:36.627Z,5.93
2018-09-21T13:47:05.759Z,5.53
2018-09-21T13:49:34.790Z,6.33
2018-09-21T13:52:03.913Z,6.00
2018-09-21T13:54:32.899Z,5.40
2018-09-21T13:57:01.828Z,6.23
2018-09-21T13:59:30.768Z,6.17
2018-09-21T14:01:59.718Z,5.50
2018-09-21T14:04:28.654Z,6.33
2018-09-21T14:06:57.576Z,5.63
2018-09-21T14:09:26.594Z,6.53
2018-09-21T14:11:55.721Z,6.03
2018-09-21T14:14:24.895Z,5.93
2018-09-21T14:16:53.815Z,6.30
2018-09-21T14:19:23.059Z,6.40
2018-09-21T14:21:52.189Z,5.37
2018-09-21T14:24:21.121Z,6.47
2018-09-21T14:26:50.101Z,5.90
2018-09-21T14:29:19.010Z,5.67
2018-09-21T14:31:47.947Z,6.53
2018-09-21T14:34:18.291Z,6.33
2018-09-21T14:36:47.237Z,5.87
2018-09-21T14:39:16.231Z,5.80
2018-09-21T14:41:46.411Z,6.37
2018-09-21T14:44:15.322Z,6.40
2018-09-21T14:46:44.399Z,6.23
2018-09-21T14:49:14.680Z,7.53
2018-09-21T14:51:43.690Z,6.20
2018-09-21T14:54:12.720Z,8.33
2018-09-21T14:56:41.683Z,7.73
2018-09-21T14:59:10.630Z,7.20
2018-09-21T15:01:39.578Z,6.80
2018-09-21T15:04:08.694Z,7.33
2018-09-21T15:06:37.644Z,5.93
2018-09-21T15:09:09.301Z,7.53
2018-09-21T15:11:38.855Z,8.03
2018-09-21T15:14:07.906Z,8.00
2018-09-21T15:16:38.374Z,7.37
2018-09-21T15:19:07.345Z,8.37
2018-09-21T15:21:36.274Z,7.90
2018-09-21T15:24:05.388Z,7.23
2018-09-21T15:26:34.532Z,7.63
2018-09-21T15:29:03.537Z,8.53
2018-09-21T15:31:32.555Z,8.50
2018-09-21T15:34:01.466Z,7.97
2018-09-21T15:36:31.735Z,7.93
2018-09-21T15:39:00.685Z,7.90
2018-09-21T15:41:29.665Z,8.13
2018-09-21T15:43:58.652Z,8.13
2018-09-21T15:46:27.558Z,8.53
2018-09-21T15:48:56.603Z,8.50
2018-09-21T15:51:26.825Z,7.60
2018-09-21T15:53:55.770Z,8.60
2018-09-21T15:56:24.747Z,8.40
2018-09-21T15:58:55.149Z,8.63
2018-09-21T16:01:24.097Z,8.97
2018-09-21T16:03:54.378Z,8.73
2018-09-21T16:06:23.305Z,8.70
2018-09-21T16:08:52.213Z,9.13
2018-09-21T16:11:21.487Z,8.73
2018-09-21T16:13:50.439Z,9.33
2018-09-21T16:16:20.745Z,8.63
2018-09-21T16:18:49.905Z,8.73
2018-09-21T16:21:18.917Z,9.03
2018-09-21T16:23:47.841Z,8.23
2018-09-21T16:26:18.187Z,8.70
2018-09-21T16:28:47.103Z,9.17
2018-09-21T16:31:16.046Z,9.50
2018-09-21T16:33:46.448Z,8.50
2018-09-21T16:36:15.494Z,8.67
2018-09-21T16:38:44.467Z,9.23
2018-09-21T16:41:13.487Z,8.93
2018-09-21T16:43:42.390Z,8.47
2018-09-21T16:46:11.354Z,8.47
2018-09-21T16:48:40.284Z,9.03
2018-09-21T16:51:10.515Z,8.50
2018-09-21T16:53:39.470Z,9.00
2018-09-21T16:56:09.890Z,9.50
2018-09-21T16:58:38.819Z,10.17
2018-09-21T17:01:07.894Z,9.50
2018-09-21T17:03:38.247Z,8.87
2018-09-21T17:06:07.221Z,9.17
2018-09-21T17:08:37.471Z,9.30
2018-09-21T17:11:06.490Z,8.83
2018-09-21T17:13:35.452Z,8.90
2018-09-21T17:16:04.431Z,8.47
2018-09-21T17:18:33.388Z,8.47
2018-09-21T17:21:03.617Z,7.87
2018-09-21T17:23:32.551Z,8.63
2018-09-21T17:26:01.605Z,8.50
2018-09-21T17:28:32.099Z,8.40
2018-09-21T17:31:01.161Z,9.50
2018-09-21T17:33:30.103Z,8.40
2018-09-21T17:36:00.431Z,8.00
2018-09-21T17:38:29.481Z,8.07
2018-09-21T17:40:58.649Z,9.73
2018-09-21T17:43:27.642Z,10.67
2018-09-21T17:45:56.594Z,9.03
2018-09-21T17:48:25.549Z,9.43
2018-09-21T17:50:54.567Z,9.50
2018-09-21T17:53:23.523Z,8.50
2018-09-21T17:55:52.502Z,10.03
2018-09-21T17:58:21.524Z,9.97
2018-09-21T18:00:50.711Z,10.37
2018-09-21T18:03:19.634Z,10.90
2018-09-21T18:05:48.644Z,10.07
2018-09-21T18:08:17.608Z,10.07
2018-09-21T18:10:46.545Z,11.13
2018-09-21T18:13:16.884Z,9.73
2018-09-21T18:15:45.861Z,9.43
2018-09-21T18:18:14.826Z,10.93
2018-09-21T18:20:43.735Z,10.27
2018-09-21T18:23:12.605Z,10.57
2018-09-21T18:25:41.568Z,12.27
2018-09-21T18:28:11.880Z,13.73
2018-09-21T18:30:40.760Z,13.70
2018-09-21T18:33:09.738Z,13.83
2018-09-21T18:35:38.779Z,14.47
2018-09-21T18:38:07.735Z,14.67
2018-09-21T18:40:36.633Z,14.40
2018-09-21T18:43:05.731Z,13.90
2018-09-21T18:45:35.947Z,14.80
2018-09-21T18:48:04.873Z,15.17
2018-09-21T18:50:33.861Z,14.50
2018-09-21T18:53:04.060Z,14.93
2018-09-21T18:55:33.147Z,15.07
2018-09-21T18:58:02.179Z,15.10
2018-09-21T19:00:31.258Z,15.30
2018-09-21T19:03:00.275Z,14.50
2018-09-21T19:05:29.189Z,16.80
2018-09-21T19:07:58.164Z,15.93
2018-09-21T19:10:27.147Z,16.23
2018-09-21T19:12:56.151Z,17.33
2018-09-21T19:15:25.213Z,17.23
2018-09-21T19:17:55.363Z,16.40
2018-09-21T19:20:24.233Z,15.83
2018-09-21T19:22:54.879Z,16.17
2018-09-21T19:25:23.822Z,16.47
2018-09-21T19:27:52.761Z,15.47
2018-09-21T19:30:21.734Z,15.57
2018-09-21T19:32:50.666Z,17.33
2018-09-21T19:35:20.978Z,16.53
2018-09-21T19:37:49.974Z,15.67
2018-09-21T19:40:18.977Z,15.77
2018-09-21T19:42:48.032Z,15.63
2018-09-21T19:45:17.021Z,15.33
2018-09-21T19:47:45.991Z,16.33
2018-09-21T19:50:14.898Z,16.43
2018-09-21T19:52:43.859Z,15.73
2018-09-21T19:55:12.763Z,16.93
2018-09-21T19:57:41.689Z,16.37
2018-09-21T20:00:11.980Z,15.07
2018-09-21T20:02:40.850Z,15.93
2018-09-21T20:05:09.768Z,15.23
2018-09-21T20:07:38.716Z,15.23
2018-09-21T20:10:07.776Z,16.00
2018-09-21T20:12:36.711Z,17.23
2018-09-21T20:15:05.732Z,15.93
2018-09-21T20:17:34.678Z,17.15
2018-09-21T20:20:04.925Z,16.17
2018-09-21T20:22:33.823Z,17.27
2018-09-21T20:25:02.822Z,16.83
2018-09-21T20:27:31.785Z,16.80
2018-09-21T20:30:06.988Z,16.47
2018-09-21T20:32:41.095Z,16.37
2018-09-21T20:35:10.052Z,16.40
2018-09-21T20:37:39.067Z,17.17
2018-09-21T20:40:09.406Z,16.93
2018-09-21T20:42:39.619Z,16.97
2018-09-21T20:45:09.874Z,16.97
2018-09-21T20:47:38.751Z,16.20
2018-09-21T20:50:07.735Z,16.03
2018-09-21T20:52:37.987Z,15.47
2018-09-21T20:55:07.044Z,16.40
2018-09-21T20:57:36.004Z,16.70
2018-09-21T21:00:06.342Z,16.47
2018-09-21T21:02:35.277Z,17.13
2018-09-21T21:05:04.268Z,16.90
2018-09-21T21:07:33.325Z,16.03
2018-09-21T21:10:02.269Z,15.67
2018-09-21T21:12:31.239Z,16.47
2018-09-21T21:15:01.678Z,19.07
2018-09-21T21:17:30.636Z,18.80
2018-09-21T21:19:59.622Z,18.73
2018-09-21T21:22:28.585Z,19.13
2018-09-21T21:24:57.550Z,17.67
2018-09-21T21:27:26.527Z,20.60
2018-09-21T21:29:55.564Z,18.87
2018-09-21T21:32:24.590Z,21.47
2018-09-21T21:34:53.526Z,20.43
2018-09-21T21:37:22.551Z,19.87
2018-09-21T21:39:51.528Z,20.10
2018-09-21T21:42:20.387Z,20.13
2018-09-21T21:44:49.246Z,20.27
2018-09-21T21:47:18.427Z,21.97
2018-09-21T21:49:47.331Z,21.67
2018-09-21T21:52:16.263Z,22.70
2018-09-21T21:54:45.267Z,20.13
2018-09-21T21:57:14.245Z,22.00
2018-09-21T21:59:44.132Z,23.13
2018-09-21T22:02:13.783Z,24.23
2018-09-21T22:04:43.058Z,23.57
2018-09-21T22:07:12.830Z,24.27
2018-09-21T22:09:43.807Z,21.17
2018-09-21T22:12:18.346Z,25.40
2018-09-21T22:14:54.908Z,24.80
2018-09-21T22:17:27.120Z,25.83
2018-09-21T22:19:57.029Z,26.23
2018-09-21T22:22:27.456Z,27.33
2018-09-21T22:25:00.100Z,26.43
2018-09-21T22:27:33.795Z,27.53
2018-09-21T22:30:09.896Z,26.83
2018-09-21T22:32:44.742Z,26.83
2018-09-21T22:35:20.024Z,32.93
2018-09-21T22:37:59.549Z,34.30
2018-09-21T22:40:28.812Z,32.67
2018-09-21T22:43:01.685Z,35.90
2018-09-21T22:45:31.531Z,29.93
2018-09-21T22:48:00.520Z,34.00
2018-09-21T22:50:29.439Z,35.20
2018-09-21T22:53:00.235Z,34.33
2018-09-21T22:55:29.241Z,31.97
2018-09-21T22:57:58.133Z,35.00
2018-09-21T23:00:27.258Z,31.77
2018-09-21T23:02:56.339Z,33.57
2018-09-21T23:05:25.206Z,35.35
2018-09-21T23:07:54.059Z,29.60
2018-09-21T23:10:23.242Z,29.63
2018-09-21T23:12:52.155Z,29.47
2018-09-21T23:15:21.219Z,29.17
2018-09-21T23:17:50.088Z,33.93
2018-09-21T23:20:19.027Z,46.37
2018-09-21T23:22:47.879Z,32.10
2018-09-21T23:25:16.928Z,32.73
2018-09-21T23:27:45.804Z,34.67
2018-09-21T23:30:14.642Z,32.20
2018-09-21T23:32:43.512Z,43.47
2018-09-21T23:35:12.402Z,39.63
2018-09-21T23:37:41.239Z,48.80
2018-09-21T23:40:10.166Z,45.63
2018-09-21T23:42:39.258Z,47.33
2018-09-21T23:45:08.440Z,70.03
2018-09-21T23:47:37.314Z,56.63
2018-09-21T23:50:06.290Z,53.07
2018-09-21T23:52:35.198Z,77.97
2018-09-21T23:55:04.121Z,46.77
2018-09-21T23:57:33.132Z,43.83
